sensor_id;sensor_type;location;lat;lon;timestamp;P1;durP1;ratioP1;P2;durP2;ratioP2
18732;SDS011;9495;51.210;2.934;2023-07-29T00:00:22;7.72;;;4.10;;
18732;SDS011;9495;51.210;2.934;2023-07-29T00:02:51;6.95;;;4.35;;
18732;SDS011;9495;51.210;2.934;2023-07-29T00:05:20;5.65;;;4.03;;
18732;SDS011;9495;51.210;2.934;2023-07-29T00:07:48;6.25;;;4.13;;
18732;SDS011;9495;51.210;2.934;2023-07-29T00:10:17;7.07;;;4.47;;
18732;SDS011;9495;51.210;2.934;2023-07-29T00:12:46;6.35;;;5.03;;
18732;SDS011;9495;51.210;2.934;2023-07-29T00:15:15;9.88;;;5.00;;
18732;SDS011;9495;51.210;2.934;2023-07-29T00:17:45;8.18;;;4.93;;
18732;SDS011;9495;51.210;2.934;2023-07-29T00:20:13;6.93;;;4.75;;
18732;SDS011;9495;51.210;2.934;2023-07-29T00:22:42;9.38;;;5.13;;
18732;SDS011;9495;51.210;2.934;2023-07-29T00:25:11;7.85;;;4.85;;
18732;SDS011;9495;51.210;2.934;2023-07-29T00:27:39;6.97;;;5.07;;
18732;SDS011;9495;51.210;2.934;2023-07-29T00:30:08;12.13;;;5.15;;
18732;SDS011;9495;51.210;2.934;2023-07-29T00:32:37;14.50;;;5.45;;
18732;SDS011;9495;51.210;2.934;2023-07-29T00:35:07;9.63;;;5.30;;
18732;SDS011;9495;51.210;2.934;2023-07-29T00:37:36;10.15;;;4.82;;
18732;SDS011;9495;51.210;2.934;2023-07-29T00:40:06;9.30;;;5.15;;
18732;SDS011;9495;51.210;2.934;2023-07-29T00:42:41;11.20;;;5.13;;
18732;SDS011;9495;51.210;2.934;2023-07-29T00:45:10;8.82;;;4.97;;
18732;SDS011;9495;51.210;2.934;2023-07-29T00:47:39;10.85;;;5.63;;
18732;SDS011;9495;51.210;2.934;2023-07-29T00:50:10;10.10;;;5.35;;
18732;SDS011;9495;51.210;2.934;2023-07-29T00:52:40;11.25;;;5.45;;
18732;SDS011;9495;51.210;2.934;2023-07-29T00:55:09;9.93;;;5.55;;
18732;SDS011;9495;51.210;2.934;2023-07-29T00:57:37;8.80;;;5.03;;
18732;SDS011;9495;51.210;2.934;2023-07-29T01:00:07;11.02;;;5.57;;
18732;SDS011;9495;51.210;2.934;2023-07-29T01:02:37;8.60;;;5.32;;
18732;SDS011;9495;51.210;2.934;2023-07-29T01:05:06;7.97;;;5.50;;
18732;SDS011;9495;51.210;2.934;2023-07-29T01:07:39;12.10;;;5.32;;
18732;SDS011;9495;51.210;2.934;2023-07-29T01:10:17;7.70;;;5.05;;
18732;SDS011;9495;51.210;2.934;2023-07-29T01:12:54;10.23;;;5.50;;
18732;SDS011;9495;51.210;2.934;2023-07-29T01:15:29;9.27;;;5.50;;
18732;SDS011;9495;51.210;2.934;2023-07-29T01:18:02;10.25;;;5.95;;
18732;SDS011;9495;51.210;2.934;2023-07-29T01:20:34;10.10;;;5.60;;
18732;SDS011;9495;51.210;2.934;2023-07-29T01:23:08;10.68;;;6.13;;
18732;SDS011;9495;51.210;2.934;2023-07-29T01:25:39;11.57;;;5.75;;
18732;SDS011;9495;51.210;2.934;2023-07-29T01:28:07;10.52;;;5.22;;
18732;SDS011;9495;51.210;2.934;2023-07-29T01:30:37;11.27;;;5.80;;
18732;SDS011;9495;51.210;2.934;2023-07-29T01:33:09;9.38;;;5.95;;
18732;SDS011;9495;51.210;2.934;2023-07-29T01:35:42;12.13;;;5.85;;
18732;SDS011;9495;51.210;2.934;2023-07-29T01:38:14;11.30;;;6.05;;
18732;SDS011;9495;51.210;2.934;2023-07-29T01:40:46;9.50;;;5.78;;
18732;SDS011;9495;51.210;2.934;2023-07-29T01:43:16;9.70;;;5.70;;
18732;SDS011;9495;51.210;2.934;2023-07-29T01:45:45;10.32;;;5.75;;
18732;SDS011;9495;51.210;2.934;2023-07-29T01:48:14;11.07;;;5.78;;
18732;SDS011;9495;51.210;2.934;2023-07-29T01:50:42;10.50;;;5.55;;
18732;SDS011;9495;51.210;2.934;2023-07-29T01:53:11;10.27;;;5.28;;
18732;SDS011;9495;51.210;2.934;2023-07-29T01:55:39;7.82;;;4.82;;
18732;SDS011;9495;51.210;2.934;2023-07-29T01:58:09;10.93;;;4.65;;
18732;SDS011;9495;51.210;2.934;2023-07-29T02:00:37;9.27;;;5.43;;
18732;SDS011;9495;51.210;2.934;2023-07-29T02:03:06;9.95;;;5.47;;
18732;SDS011;9495;51.210;2.934;2023-07-29T02:05:35;9.07;;;5.50;;
18732;SDS011;9495;51.210;2.934;2023-07-29T02:08:03;6.03;;;4.55;;
18732;SDS011;9495;51.210;2.934;2023-07-29T02:10:32;7.85;;;5.07;;
18732;SDS011;9495;51.210;2.934;2023-07-29T02:13:01;7.50;;;5.03;;
18732;SDS011;9495;51.210;2.934;2023-07-29T02:15:31;7.47;;;5.18;;
18732;SDS011;9495;51.210;2.934;2023-07-29T02:18:00;8.75;;;5.30;;
18732;SDS011;9495;51.210;2.934;2023-07-29T02:20:30;9.55;;;5.32;;
18732;SDS011;9495;51.210;2.934;2023-07-29T02:22:58;8.07;;;5.60;;
18732;SDS011;9495;51.210;2.934;2023-07-29T02:25:26;7.45;;;4.93;;
18732;SDS011;9495;51.210;2.934;2023-07-29T02:27:55;9.30;;;5.47;;
18732;SDS011;9495;51.210;2.934;2023-07-29T02:30:23;8.57;;;5.00;;
18732;SDS011;9495;51.210;2.934;2023-07-29T02:32:53;8.25;;;4.63;;
18732;SDS011;9495;51.210;2.934;2023-07-29T02:35:22;7.57;;;4.88;;
18732;SDS011;9495;51.210;2.934;2023-07-29T02:37:50;10.25;;;4.82;;
18732;SDS011;9495;51.210;2.934;2023-07-29T02:40:19;9.15;;;5.20;;
18732;SDS011;9495;51.210;2.934;2023-07-29T02:42:49;8.75;;;4.85;;
18732;SDS011;9495;51.210;2.934;2023-07-29T02:45:18;10.43;;;5.30;;
18732;SDS011;9495;51.210;2.934;2023-07-29T02:47:46;8.68;;;5.00;;
18732;SDS011;9495;51.210;2.934;2023-07-29T02:50:16;6.63;;;5.15;;
18732;SDS011;9495;51.210;2.934;2023-07-29T02:52:45;9.95;;;4.80;;
18732;SDS011;9495;51.210;2.934;2023-07-29T02:55:17;10.57;;;5.45;;
18732;SDS011;9495;51.210;2.934;2023-07-29T02:57:45;7.20;;;5.05;;
18732;SDS011;9495;51.210;2.934;2023-07-29T03:00:14;9.98;;;5.28;;
18732;SDS011;9495;51.210;2.934;2023-07-29T03:02:42;9.60;;;4.57;;
18732;SDS011;9495;51.210;2.934;2023-07-29T03:05:11;8.75;;;4.75;;
18732;SDS011;9495;51.210;2.934;2023-07-29T03:07:41;8.43;;;4.60;;
18732;SDS011;9495;51.210;2.934;2023-07-29T03:10:10;8.70;;;4.88;;
18732;SDS011;9495;51.210;2.934;2023-07-29T03:12:40;8.38;;;4.47;;
18732;SDS011;9495;51.210;2.934;2023-07-29T03:15:08;10.70;;;4.72;;
18732;SDS011;9495;51.210;2.934;2023-07-29T03:17:37;7.80;;;5.20;;
18732;SDS011;9495;51.210;2.934;2023-07-29T03:20:06;7.80;;;4.05;;
18732;SDS011;9495;51.210;2.934;2023-07-29T03:22:35;11.60;;;4.93;;
18732;SDS011;9495;51.210;2.934;2023-07-29T03:25:05;11.48;;;4.82;;
18732;SDS011;9495;51.210;2.934;2023-07-29T03:27:34;6.53;;;4.97;;
18732;SDS011;9495;51.210;2.934;2023-07-29T03:30:03;8.20;;;4.70;;
18732;SDS011;9495;51.210;2.934;2023-07-29T03:32:32;7.70;;;4.78;;
18732;SDS011;9495;51.210;2.934;2023-07-29T03:35:01;10.88;;;4.95;;
18732;SDS011;9495;51.210;2.934;2023-07-29T03:37:30;8.07;;;5.18;;
18732;SDS011;9495;51.210;2.934;2023-07-29T03:39:59;8.65;;;5.03;;
18732;SDS011;9495;51.210;2.934;2023-07-29T03:42:32;9.45;;;4.80;;
18732;SDS011;9495;51.210;2.934;2023-07-29T03:45:00;10.70;;;4.93;;
18732;SDS011;9495;51.210;2.934;2023-07-29T03:47:29;8.85;;;5.35;;
18732;SDS011;9495;51.210;2.934;2023-07-29T03:49:57;10.27;;;5.63;;
18732;SDS011;9495;51.210;2.934;2023-07-29T03:52:26;10.65;;;5.07;;
18732;SDS011;9495;51.210;2.934;2023-07-29T03:54:54;8.52;;;5.20;;
18732;SDS011;9495;51.210;2.934;2023-07-29T03:57:23;7.95;;;4.97;;
18732;SDS011;9495;51.210;2.934;2023-07-29T03:59:53;8.10;;;5.13;;
18732;SDS011;9495;51.210;2.934;2023-07-29T04:02:21;9.15;;;5.50;;
18732;SDS011;9495;51.210;2.934;2023-07-29T04:04:50;9.65;;;4.93;;
18732;SDS011;9495;51.210;2.934;2023-07-29T04:07:18;7.63;;;5.35;;
18732;SDS011;9495;51.210;2.934;2023-07-29T04:09:47;12.00;;;5.35;;
18732;SDS011;9495;51.210;2.934;2023-07-29T04:12:15;6.93;;;4.93;;
18732;SDS011;9495;51.210;2.934;2023-07-29T04:14:48;9.98;;;5.13;;
18732;SDS011;9495;51.210;2.934;2023-07-29T04:17:18;5.30;;;4.32;;
18732;SDS011;9495;51.210;2.934;2023-07-29T04:19:46;13.13;;;4.65;;
18732;SDS011;9495;51.210;2.934;2023-07-29T04:22:15;9.55;;;4.90;;
18732;SDS011;9495;51.210;2.934;2023-07-29T04:24:44;9.10;;;4.90;;
18732;SDS011;9495;51.210;2.934;2023-07-29T04:27:12;6.80;;;4.95;;
18732;SDS011;9495;51.210;2.934;2023-07-29T04:29:41;8.55;;;4.88;;
18732;SDS011;9495;51.210;2.934;2023-07-29T04:32:09;8.25;;;5.28;;
18732;SDS011;9495;51.210;2.934;2023-07-29T04:34:39;7.32;;;4.93;;
18732;SDS011;9495;51.210;2.934;2023-07-29T04:37:07;8.15;;;4.82;;
18732;SDS011;9495;51.210;2.934;2023-07-29T04:39:36;7.32;;;5.10;;
18732;SDS011;9495;51.210;2.934;2023-07-29T04:42:05;8.70;;;4.85;;
18732;SDS011;9495;51.210;2.934;2023-07-29T04:44:33;8.73;;;4.95;;
18732;SDS011;9495;51.210;2.934;2023-07-29T04:47:02;8.43;;;4.72;;
18732;SDS011;9495;51.210;2.934;2023-07-29T04:49:31;9.90;;;5.60;;
18732;SDS011;9495;51.210;2.934;2023-07-29T04:52:01;7.22;;;4.63;;
18732;SDS011;9495;51.210;2.934;2023-07-29T04:54:30;9.38;;;4.93;;
18732;SDS011;9495;51.210;2.934;2023-07-29T04:56:58;8.57;;;4.68;;
18732;SDS011;9495;51.210;2.934;2023-07-29T04:59:27;7.20;;;5.07;;
18732;SDS011;9495;51.210;2.934;2023-07-29T05:01:55;9.60;;;5.20;;
18732;SDS011;9495;51.210;2.934;2023-07-29T05:04:24;8.60;;;4.82;;
18732;SDS011;9495;51.210;2.934;2023-07-29T05:06:52;8.45;;;5.00;;
18732;SDS011;9495;51.210;2.934;2023-07-29T05:09:23;8.30;;;4.82;;
18732;SDS011;9495;51.210;2.934;2023-07-29T05:11:54;8.70;;;4.90;;
18732;SDS011;9495;51.210;2.934;2023-07-29T05:14:23;9.90;;;4.88;;
18732;SDS011;9495;51.210;2.934;2023-07-29T05:16:51;6.40;;;4.78;;
18732;SDS011;9495;51.210;2.934;2023-07-29T05:19:20;9.52;;;4.97;;
18732;SDS011;9495;51.210;2.934;2023-07-29T05:21:48;7.18;;;4.85;;
18732;SDS011;9495;51.210;2.934;2023-07-29T05:24:17;6.93;;;4.68;;
18732;SDS011;9495;51.210;2.934;2023-07-29T05:26:47;7.13;;;5.05;;
18732;SDS011;9495;51.210;2.934;2023-07-29T05:29:15;8.07;;;4.50;;
18732;SDS011;9495;51.210;2.934;2023-07-29T05:31:44;7.60;;;4.22;;
18732;SDS011;9495;51.210;2.934;2023-07-29T05:34:13;7.15;;;4.30;;
18732;SDS011;9495;51.210;2.934;2023-07-29T05:36:44;8.18;;;4.13;;
18732;SDS011;9495;51.210;2.934;2023-07-29T05:39:13;7.00;;;4.30;;
18732;SDS011;9495;51.210;2.934;2023-07-29T05:41:41;6.70;;;4.18;;
18732;SDS011;9495;51.210;2.934;2023-07-29T05:44:11;6.68;;;4.30;;
18732;SDS011;9495;51.210;2.934;2023-07-29T05:46:39;6.57;;;4.22;;
18732;SDS011;9495;51.210;2.934;2023-07-29T05:49:08;6.05;;;4.32;;
18732;SDS011;9495;51.210;2.934;2023-07-29T05:51:36;6.03;;;4.03;;
18732;SDS011;9495;51.210;2.934;2023-07-29T05:54:05;5.78;;;4.25;;
18732;SDS011;9495;51.210;2.934;2023-07-29T05:56:33;6.55;;;4.32;;
18732;SDS011;9495;51.210;2.934;2023-07-29T05:59:02;4.70;;;3.95;;
18732;SDS011;9495;51.210;2.934;2023-07-29T06:01:32;6.72;;;3.95;;
18732;SDS011;9495;51.210;2.934;2023-07-29T06:04:01;6.47;;;4.40;;
18732;SDS011;9495;51.210;2.934;2023-07-29T06:06:30;4.78;;;3.70;;
18732;SDS011;9495;51.210;2.934;2023-07-29T06:08:58;6.57;;;4.18;;
18732;SDS011;9495;51.210;2.934;2023-07-29T06:11:27;7.55;;;4.10;;
18732;SDS011;9495;51.210;2.934;2023-07-29T06:13:56;8.85;;;4.20;;
18732;SDS011;9495;51.210;2.934;2023-07-29T06:16:24;7.35;;;3.45;;
18732;SDS011;9495;51.210;2.934;2023-07-29T06:18:54;6.57;;;3.67;;
18732;SDS011;9495;51.210;2.934;2023-07-29T06:21:22;4.65;;;3.60;;
18732;SDS011;9495;51.210;2.934;2023-07-29T06:23:51;4.93;;;3.03;;
18732;SDS011;9495;51.210;2.934;2023-07-29T06:26:20;4.63;;;3.55;;
18732;SDS011;9495;51.210;2.934;2023-07-29T06:28:48;3.75;;;3.35;;
18732;SDS011;9495;51.210;2.934;2023-07-29T06:31:17;4.28;;;3.35;;
18732;SDS011;9495;51.210;2.934;2023-07-29T06:33:45;3.97;;;2.70;;
18732;SDS011;9495;51.210;2.934;2023-07-29T06:36:16;5.55;;;3.10;;
18732;SDS011;9495;51.210;2.934;2023-07-29T06:38:44;4.53;;;3.22;;
18732;SDS011;9495;51.210;2.934;2023-07-29T06:41:13;6.88;;;3.38;;
18732;SDS011;9495;51.210;2.934;2023-07-29T06:43:44;5.32;;;3.38;;
18732;SDS011;9495;51.210;2.934;2023-07-29T06:46:13;7.60;;;3.85;;
18732;SDS011;9495;51.210;2.934;2023-07-29T06:48:42;5.43;;;2.90;;
18732;SDS011;9495;51.210;2.934;2023-07-29T06:51:10;4.93;;;2.88;;
18732;SDS011;9495;51.210;2.934;2023-07-29T06:53:40;5.97;;;3.03;;
18732;SDS011;9495;51.210;2.934;2023-07-29T06:56:09;2.92;;;2.63;;
18732;SDS011;9495;51.210;2.934;2023-07-29T06:58:38;8.35;;;2.92;;
18732;SDS011;9495;51.210;2.934;2023-07-29T07:01:06;5.95;;;3.38;;
18732;SDS011;9495;51.210;2.934;2023-07-29T07:03:34;8.18;;;3.47;;
18732;SDS011;9495;51.210;2.934;2023-07-29T07:06:03;6.13;;;3.63;;
18732;SDS011;9495;51.210;2.934;2023-07-29T07:08:32;4.18;;;3.03;;
18732;SDS011;9495;51.210;2.934;2023-07-29T07:11:02;6.70;;;3.40;;
18732;SDS011;9495;51.210;2.934;2023-07-29T07:13:30;8.43;;;3.67;;
18732;SDS011;9495;51.210;2.934;2023-07-29T07:15:58;4.75;;;3.28;;
18732;SDS011;9495;51.210;2.934;2023-07-29T07:18:27;6.45;;;3.13;;
18732;SDS011;9495;51.210;2.934;2023-07-29T07:20:55;5.55;;;3.40;;
18732;SDS011;9495;51.210;2.934;2023-07-29T07:23:24;5.82;;;3.25;;
18732;SDS011;9495;51.210;2.934;2023-07-29T07:25:52;6.35;;;3.60;;
18732;SDS011;9495;51.210;2.934;2023-07-29T07:28:22;7.15;;;3.45;;
18732;SDS011;9495;51.210;2.934;2023-07-29T07:30:51;6.55;;;3.78;;
18732;SDS011;9495;51.210;2.934;2023-07-29T07:33:22;6.72;;;3.20;;
18732;SDS011;9495;51.210;2.934;2023-07-29T07:35:50;5.28;;;3.28;;
18732;SDS011;9495;51.210;2.934;2023-07-29T07:38:19;7.38;;;3.22;;
18732;SDS011;9495;51.210;2.934;2023-07-29T07:40:52;6.10;;;3.10;;
18732;SDS011;9495;51.210;2.934;2023-07-29T07:43:23;4.70;;;3.33;;
18732;SDS011;9495;51.210;2.934;2023-07-29T07:45:57;4.43;;;3.30;;
18732;SDS011;9495;51.210;2.934;2023-07-29T07:48:26;6.30;;;3.22;;
18732;SDS011;9495;51.210;2.934;2023-07-29T07:50:55;3.47;;;2.80;;
18732;SDS011;9495;51.210;2.934;2023-07-29T07:53:23;3.25;;;2.70;;
18732;SDS011;9495;51.210;2.934;2023-07-29T07:55:53;4.03;;;2.70;;
18732;SDS011;9495;51.210;2.934;2023-07-29T07:58:22;5.15;;;2.95;;
18732;SDS011;9495;51.210;2.934;2023-07-29T08:00:51;7.65;;;3.17;;
18732;SDS011;9495;51.210;2.934;2023-07-29T08:03:20;6.53;;;2.47;;
18732;SDS011;9495;51.210;2.934;2023-07-29T08:05:48;4.88;;;2.97;;
18732;SDS011;9495;51.210;2.934;2023-07-29T08:08:17;4.63;;;3.15;;
18732;SDS011;9495;51.210;2.934;2023-07-29T08:10:45;4.80;;;2.92;;
18732;SDS011;9495;51.210;2.934;2023-07-29T08:13:14;4.50;;;3.22;;
18732;SDS011;9495;51.210;2.934;2023-07-29T08:15:47;7.53;;;3.63;;
18732;SDS011;9495;51.210;2.934;2023-07-29T08:18:15;6.82;;;3.28;;
18732;SDS011;9495;51.210;2.934;2023-07-29T08:20:51;4.03;;;3.50;;
18732;SDS011;9495;51.210;2.934;2023-07-29T08:23:20;8.00;;;3.60;;
18732;SDS011;9495;51.210;2.934;2023-07-29T08:25:52;3.85;;;2.90;;
18732;SDS011;9495;51.210;2.934;2023-07-29T08:28:22;7.68;;;4.10;;
18732;SDS011;9495;51.210;2.934;2023-07-29T08:30:52;10.40;;;4.35;;
18732;SDS011;9495;51.210;2.934;2023-07-29T08:33:20;9.68;;;4.00;;
18732;SDS011;9495;51.210;2.934;2023-07-29T08:35:49;6.72;;;3.42;;
18732;SDS011;9495;51.210;2.934;2023-07-29T08:38:17;9.13;;;3.97;;
18732;SDS011;9495;51.210;2.934;2023-07-29T08:40:49;12.45;;;4.40;;
18732;SDS011;9495;51.210;2.934;2023-07-29T08:43:21;7.07;;;4.35;;
18732;SDS011;9495;51.210;2.934;2023-07-29T08:45:55;10.90;;;4.80;;
18732;SDS011;9495;51.210;2.934;2023-07-29T08:48:28;8.43;;;4.50;;
18732;SDS011;9495;51.210;2.934;2023-07-29T08:51:00;6.88;;;4.53;;
18732;SDS011;9495;51.210;2.934;2023-07-29T08:53:31;9.10;;;4.75;;
18732;SDS011;9495;51.210;2.934;2023-07-29T08:56:00;6.10;;;3.65;;
18732;SDS011;9495;51.210;2.934;2023-07-29T08:58:29;9.38;;;3.97;;
18732;SDS011;9495;51.210;2.934;2023-07-29T09:00:59;6.22;;;4.40;;
18732;SDS011;9495;51.210;2.934;2023-07-29T09:03:28;5.43;;;4.25;;
18732;SDS011;9495;51.210;2.934;2023-07-29T09:05:57;5.80;;;4.97;;
18732;SDS011;9495;51.210;2.934;2023-07-29T09:08:26;6.78;;;5.50;;
18732;SDS011;9495;51.210;2.934;2023-07-29T09:10:55;7.68;;;5.45;;
18732;SDS011;9495;51.210;2.934;2023-07-29T09:13:23;8.10;;;5.25;;
18732;SDS011;9495;51.210;2.934;2023-07-29T09:15:54;8.15;;;4.25;;
18732;SDS011;9495;51.210;2.934;2023-07-29T09:18:25;6.05;;;3.53;;
18732;SDS011;9495;51.210;2.934;2023-07-29T09:20:55;2.70;;;2.33;;
18732;SDS011;9495;51.210;2.934;2023-07-29T09:23:27;4.10;;;2.50;;
18732;SDS011;9495;51.210;2.934;2023-07-29T09:26:00;7.97;;;3.20;;
18732;SDS011;9495;51.210;2.934;2023-07-29T09:28:32;5.78;;;2.35;;
18732;SDS011;9495;51.210;2.934;2023-07-29T09:31:02;4.28;;;3.22;;
18732;SDS011;9495;51.210;2.934;2023-07-29T09:33:34;4.22;;;3.05;;
18732;SDS011;9495;51.210;2.934;2023-07-29T09:36:08;3.45;;;3.15;;
18732;SDS011;9495;51.210;2.934;2023-07-29T09:38:37;3.65;;;3.30;;
18732;SDS011;9495;51.210;2.934;2023-07-29T09:41:05;5.78;;;3.30;;
18732;SDS011;9495;51.210;2.934;2023-07-29T09:43:34;6.85;;;4.55;;
18732;SDS011;9495;51.210;2.934;2023-07-29T09:46:03;7.82;;;5.95;;
18732;SDS011;9495;51.210;2.934;2023-07-29T09:48:35;7.43;;;6.18;;
18732;SDS011;9495;51.210;2.934;2023-07-29T09:51:10;10.00;;;6.63;;
18732;SDS011;9495;51.210;2.934;2023-07-29T09:53:39;7.45;;;6.25;;
18732;SDS011;9495;51.210;2.934;2023-07-29T09:56:12;7.60;;;5.97;;
18732;SDS011;9495;51.210;2.934;2023-07-29T09:58:42;8.88;;;5.32;;
18732;SDS011;9495;51.210;2.934;2023-07-29T10:01:12;6.68;;;5.10;;
18732;SDS011;9495;51.210;2.934;2023-07-29T10:03:43;9.25;;;4.65;;
18732;SDS011;9495;51.210;2.934;2023-07-29T10:06:13;7.88;;;5.25;;
18732;SDS011;9495;51.210;2.934;2023-07-29T10:08:43;7.43;;;5.20;;
18732;SDS011;9495;51.210;2.934;2023-07-29T10:11:12;8.77;;;5.57;;
18732;SDS011;9495;51.210;2.934;2023-07-29T10:13:41;7.88;;;6.85;;
18732;SDS011;9495;51.210;2.934;2023-07-29T10:16:22;9.38;;;7.60;;
18732;SDS011;9495;51.210;2.934;2023-07-29T10:18:53;9.38;;;6.40;;
18732;SDS011;9495;51.210;2.934;2023-07-29T10:21:23;10.43;;;7.78;;
18732;SDS011;9495;51.210;2.934;2023-07-29T10:23:52;7.68;;;6.82;;
18732;SDS011;9495;51.210;2.934;2023-07-29T10:26:25;9.38;;;6.18;;
18732;SDS011;9495;51.210;2.934;2023-07-29T10:28:56;7.90;;;5.63;;
18732;SDS011;9495;51.210;2.934;2023-07-29T10:31:32;11.15;;;5.70;;
18732;SDS011;9495;51.210;2.934;2023-07-29T10:34:02;5.88;;;4.25;;
18732;SDS011;9495;51.210;2.934;2023-07-29T10:36:31;5.90;;;3.95;;
18732;SDS011;9495;51.210;2.934;2023-07-29T10:39:00;6.20;;;3.70;;
18732;SDS011;9495;51.210;2.934;2023-07-29T10:47:16;10.00;;;2.95;;
18732;SDS011;9495;51.210;2.934;2023-07-29T10:49:49;8.90;;;3.15;;
18732;SDS011;9495;51.210;2.934;2023-07-29T10:52:27;5.97;;;2.65;;
18732;SDS011;9495;51.210;2.934;2023-07-29T10:54:57;6.32;;;2.60;;
18732;SDS011;9495;51.210;2.934;2023-07-29T10:57:30;7.32;;;2.45;;
18732;SDS011;9495;51.210;2.934;2023-07-29T11:00:00;4.32;;;2.78;;
18732;SDS011;9495;51.210;2.934;2023-07-29T11:02:31;6.00;;;2.97;;
18732;SDS011;9495;51.210;2.934;2023-07-29T11:05:04;8.05;;;3.13;;
18732;SDS011;9495;51.210;2.934;2023-07-29T11:07:43;4.15;;;2.80;;
18732;SDS011;9495;51.210;2.934;2023-07-29T11:10:12;4.97;;;2.50;;
18732;SDS011;9495;51.210;2.934;2023-07-29T11:12:43;4.97;;;2.80;;
18732;SDS011;9495;51.210;2.934;2023-07-29T11:15:15;6.13;;;2.42;;
18732;SDS011;9495;51.210;2.934;2023-07-29T11:17:45;9.95;;;3.22;;
18732;SDS011;9495;51.210;2.934;2023-07-29T11:20:17;7.53;;;2.92;;
18732;SDS011;9495;51.210;2.934;2023-07-29T11:22:46;7.53;;;3.13;;
18732;SDS011;9495;51.210;2.934;2023-07-29T11:25:16;3.63;;;2.65;;
18732;SDS011;9495;51.210;2.934;2023-07-29T11:27:45;7.20;;;3.50;;
18732;SDS011;9495;51.210;2.934;2023-07-29T11:30:14;5.70;;;2.83;;
18732;SDS011;9495;51.210;2.934;2023-07-29T11:32:44;4.60;;;2.38;;
18732;SDS011;9495;51.210;2.934;2023-07-29T11:35:13;7.03;;;2.55;;
18732;SDS011;9495;51.210;2.934;2023-07-29T11:37:45;5.90;;;2.50;;
18732;SDS011;9495;51.210;2.934;2023-07-29T11:40:14;5.70;;;2.95;;
18732;SDS011;9495;51.210;2.934;2023-07-29T11:42:44;6.20;;;2.78;;
18732;SDS011;9495;51.210;2.934;2023-07-29T11:45:14;5.93;;;2.50;;
18732;SDS011;9495;51.210;2.934;2023-07-29T11:47:44;5.45;;;2.53;;
18732;SDS011;9495;51.210;2.934;2023-07-29T11:50:13;6.03;;;2.30;;
18732;SDS011;9495;51.210;2.934;2023-07-29T11:52:43;3.80;;;2.03;;
18732;SDS011;9495;51.210;2.934;2023-07-29T11:55:14;3.95;;;2.40;;
18732;SDS011;9495;51.210;2.934;2023-07-29T11:57:45;4.07;;;2.50;;
18732;SDS011;9495;51.210;2.934;2023-07-29T12:00:19;5.78;;;3.03;;
18732;SDS011;9495;51.210;2.934;2023-07-29T12:02:49;8.15;;;2.97;;
18732;SDS011;9495;51.210;2.934;2023-07-29T12:05:18;6.45;;;3.67;;
18732;SDS011;9495;51.210;2.934;2023-07-29T12:07:50;5.72;;;3.38;;
18732;SDS011;9495;51.210;2.934;2023-07-29T12:10:18;6.95;;;2.97;;
18732;SDS011;9495;51.210;2.934;2023-07-29T12:12:48;6.90;;;3.10;;
18732;SDS011;9495;51.210;2.934;2023-07-29T12:15:24;7.80;;;2.47;;
18732;SDS011;9495;51.210;2.934;2023-07-29T12:17:54;5.35;;;2.90;;
18732;SDS011;9495;51.210;2.934;2023-07-29T12:20:24;4.22;;;2.53;;
18732;SDS011;9495;51.210;2.934;2023-07-29T12:22:55;7.88;;;2.83;;
18732;SDS011;9495;51.210;2.934;2023-07-29T12:25:27;5.38;;;2.60;;
18732;SDS011;9495;51.210;2.934;2023-07-29T12:27:55;8.90;;;2.83;;
18732;SDS011;9495;51.210;2.934;2023-07-29T12:30:24;2.25;;;1.95;;
18732;SDS011;9495;51.210;2.934;2023-07-29T12:32:53;4.50;;;2.53;;
18732;SDS011;9495;51.210;2.934;2023-07-29T12:35:21;6.15;;;2.15;;
18732;SDS011;9495;51.210;2.934;2023-07-29T12:37:59;4.65;;;2.05;;
18732;SDS011;9495;51.210;2.934;2023-07-29T12:40:27;3.40;;;1.75;;
18732;SDS011;9495;51.210;2.934;2023-07-29T12:42:56;4.60;;;1.70;;
18732;SDS011;9495;51.210;2.934;2023-07-29T12:45:25;2.45;;;1.65;;
18732;SDS011;9495;51.210;2.934;2023-07-29T12:47:55;3.03;;;1.50;;
18732;SDS011;9495;51.210;2.934;2023-07-29T12:50:24;4.20;;;1.52;;
18732;SDS011;9495;51.210;2.934;2023-07-29T12:52:53;1.52;;;1.15;;
18732;SDS011;9495;51.210;2.934;2023-07-29T12:55:23;1.77;;;1.00;;
18732;SDS011;9495;51.210;2.934;2023-07-29T12:57:51;0.60;;;0.60;;
18732;SDS011;9495;51.210;2.934;2023-07-29T13:00:20;0.50;;;0.50;;
18732;SDS011;9495;51.210;2.934;2023-07-29T13:02:49;0.95;;;0.60;;
18732;SDS011;9495;51.210;2.934;2023-07-29T13:05:17;0.80;;;0.80;;
18732;SDS011;9495;51.210;2.934;2023-07-29T13:07:46;0.85;;;0.73;;
18732;SDS011;9495;51.210;2.934;2023-07-29T13:10:15;2.40;;;1.00;;
18732;SDS011;9495;51.210;2.934;2023-07-29T13:12:44;1.08;;;0.98;;
18732;SDS011;9495;51.210;2.934;2023-07-29T13:15:13;1.85;;;1.00;;
18732;SDS011;9495;51.210;2.934;2023-07-29T13:17:41;1.85;;;1.02;;
18732;SDS011;9495;51.210;2.934;2023-07-29T13:20:10;0.98;;;0.88;;
18732;SDS011;9495;51.210;2.934;2023-07-29T13:22:39;2.65;;;1.20;;
18732;SDS011;9495;51.210;2.934;2023-07-29T13:25:08;1.88;;;1.02;;
18732;SDS011;9495;51.210;2.934;2023-07-29T13:27:36;2.00;;;1.02;;
18732;SDS011;9495;51.210;2.934;2023-07-29T13:30:07;1.95;;;1.17;;
18732;SDS011;9495;51.210;2.934;2023-07-29T13:32:36;1.80;;;1.40;;
18732;SDS011;9495;51.210;2.934;2023-07-29T13:35:05;3.67;;;1.55;;
18732;SDS011;9495;51.210;2.934;2023-07-29T13:37:37;2.17;;;1.67;;
18732;SDS011;9495;51.210;2.934;2023-07-29T13:40:06;3.60;;;1.65;;
18732;SDS011;9495;51.210;2.934;2023-07-29T13:42:35;4.57;;;2.08;;
18732;SDS011;9495;51.210;2.934;2023-07-29T13:45:04;5.82;;;2.17;;
18732;SDS011;9495;51.210;2.934;2023-07-29T13:47:34;6.68;;;2.40;;
18732;SDS011;9495;51.210;2.934;2023-07-29T13:50:03;9.90;;;2.72;;
18732;SDS011;9495;51.210;2.934;2023-07-29T13:52:34;5.10;;;1.90;;
18732;SDS011;9495;51.210;2.934;2023-07-29T13:55:03;8.07;;;2.42;;
18732;SDS011;9495;51.210;2.934;2023-07-29T13:57:32;6.18;;;2.50;;
18732;SDS011;9495;51.210;2.934;2023-07-29T14:00:01;7.70;;;2.90;;
18732;SDS011;9495;51.210;2.934;2023-07-29T14:02:31;7.63;;;2.65;;
18732;SDS011;9495;51.210;2.934;2023-07-29T14:04:59;7.03;;;2.85;;
18732;SDS011;9495;51.210;2.934;2023-07-29T14:07:28;12.23;;;3.28;;
18732;SDS011;9495;51.210;2.934;2023-07-29T14:09:57;8.85;;;3.67;;
18732;SDS011;9495;51.210;2.934;2023-07-29T14:12:27;10.75;;;3.03;;
18732;SDS011;9495;51.210;2.934;2023-07-29T14:14:56;9.25;;;2.95;;
18732;SDS011;9495;51.210;2.934;2023-07-29T14:17:25;9.23;;;3.05;;
18732;SDS011;9495;51.210;2.934;2023-07-29T14:19:55;7.10;;;2.55;;
18732;SDS011;9495;51.210;2.934;2023-07-29T14:22:23;9.25;;;3.00;;
18732;SDS011;9495;51.210;2.934;2023-07-29T14:24:52;10.23;;;3.22;;
18732;SDS011;9495;51.210;2.934;2023-07-29T14:27:22;8.25;;;2.30;;
18732;SDS011;9495;51.210;2.934;2023-07-29T14:29:50;4.88;;;1.88;;
18732;SDS011;9495;51.210;2.934;2023-07-29T14:32:19;6.05;;;1.92;;
18732;SDS011;9495;51.210;2.934;2023-07-29T14:34:49;5.78;;;2.05;;
18732;SDS011;9495;51.210;2.934;2023-07-29T14:37:19;10.07;;;2.60;;
18732;SDS011;9495;51.210;2.934;2023-07-29T14:39:47;6.70;;;2.30;;
18732;SDS011;9495;51.210;2.934;2023-07-29T14:42:16;7.85;;;2.13;;
18732;SDS011;9495;51.210;2.934;2023-07-29T14:44:44;6.88;;;2.25;;
18732;SDS011;9495;51.210;2.934;2023-07-29T14:47:13;6.32;;;2.53;;
18732;SDS011;9495;51.210;2.934;2023-07-29T14:49:42;11.93;;;3.03;;
18732;SDS011;9495;51.210;2.934;2023-07-29T14:52:11;8.20;;;2.90;;
18732;SDS011;9495;51.210;2.934;2023-07-29T14:54:41;8.30;;;2.60;;
18732;SDS011;9495;51.210;2.934;2023-07-29T14:57:09;6.22;;;2.58;;
18732;SDS011;9495;51.210;2.934;2023-07-29T14:59:38;13.82;;;3.10;;
18732;SDS011;9495;51.210;2.934;2023-07-29T15:02:06;11.40;;;2.75;;
18732;SDS011;9495;51.210;2.934;2023-07-29T15:04:35;6.80;;;2.50;;
18732;SDS011;9495;51.210;2.934;2023-07-29T15:07:03;6.65;;;2.30;;
18732;SDS011;9495;51.210;2.934;2023-07-29T15:09:33;8.38;;;3.08;;
18732;SDS011;9495;51.210;2.934;2023-07-29T15:12:02;10.98;;;2.78;;
18732;SDS011;9495;51.210;2.934;2023-07-29T15:14:32;8.07;;;2.80;;
18732;SDS011;9495;51.210;2.934;2023-07-29T15:17:00;9.90;;;3.40;;
18732;SDS011;9495;51.210;2.934;2023-07-29T15:19:29;16.38;;;3.70;;